sensor_id;sensor_type;location;lat;lon;timestamp;temperature;humidity
21672;DHT22;10997;52.242;8.168;2023-09-07T00:04:50;17.70;99.90
21672;DHT22;10997;52.242;8.168;2023-09-07T00:09:51;17.70;99.90
21672;DHT22;10997;52.242;8.168;2023-09-07T00:14:54;17.50;99.90
21672;DHT22;10997;52.242;8.168;2023-09-07T00:19:55;17.50;99.90
21672;DHT22;10997;52.242;8.168;2023-09-07T00:24:57;17.50;99.90
21672;DHT22;10997;52.242;8.168;2023-09-07T00:29:58;17.50;99.90
21672;DHT22;10997;52.242;8.168;2023-09-07T00:34:58;17.60;99.90
21672;DHT22;10997;52.242;8.168;2023-09-07T00:39:59;17.50;99.90
21672;DHT22;10997;52.242;8.168;2023-09-07T00:44:59;17.30;99.90
21672;DHT22;10997;52.242;8.168;2023-09-07T00:50:00;17.20;99.90
21672;DHT22;10997;52.242;8.168;2023-09-07T00:55:02;17.20;99.90
21672;DHT22;10997;52.242;8.168;2023-09-07T01:00:05;16.90;99.90
21672;DHT22;10997;52.242;8.168;2023-09-07T01:05:07;16.70;99.90
21672;DHT22;10997;52.242;8.168;2023-09-07T01:10:08;16.60;99.90
21672;DHT22;10997;52.242;8.168;2023-09-07T01:15:08;16.70;99.90
21672;DHT22;10997;52.242;8.168;2023-09-07T01:20:12;16.60;99.90
21672;DHT22;10997;52.242;8.168;2023-09-07T01:25:14;16.70;99.90
21672;DHT22;10997;52.242;8.168;2023-09-07T01:30:16;16.70;99.90
21672;DHT22;10997;52.242;8.168;2023-09-07T01:35:18;16.70;99.90
21672;DHT22;10997;52.242;8.168;2023-09-07T01:40:21;16.60;99.90
21672;DHT22;10997;52.242;8.168;2023-09-07T01:45:23;16.60;99.90
21672;DHT22;10997;52.242;8.168;2023-09-07T01:50:24;16.60;99.90
21672;DHT22;10997;52.242;8.168;2023-09-07T01:55:27;16.60;99.90
21672;DHT22;10997;52.242;8.168;2023-09-07T02:00:27;16.60;99.90
21672;DHT22;10997;52.242;8.168;2023-09-07T02:05:28;16.50;99.90
21672;DHT22;10997;52.242;8.168;2023-09-07T02:10:29;16.50;99.90
21672;DHT22;10997;52.242;8.168;2023-09-07T02:15:29;16.40;99.90
21672;DHT22;10997;52.242;8.168;2023-09-07T02:20:30;16.20;99.90
21672;DHT22;10997;52.242;8.168;2023-09-07T02:25:31;16.10;99.90
21672;DHT22;10997;52.242;8.168;2023-09-07T02:30:32;16.10;99.90
21672;DHT22;10997;52.242;8.168;2023-09-07T02:35:32;16.00;99.90
21672;DHT22;10997;52.242;8.168;2023-09-07T02:40:33;15.80;99.90
21672;DHT22;10997;52.242;8.168;2023-09-07T02:45:39;15.70;99.90
21672;DHT22;10997;52.242;8.168;2023-09-07T02:50:40;15.50;99.90
21672;DHT22;10997;52.242;8.168;2023-09-07T02:55:40;15.40;99.90
21672;DHT22;10997;52.242;8.168;2023-09-07T03:00:44;15.30;99.90
21672;DHT22;10997;52.242;8.168;2023-09-07T03:05:45;15.20;99.90
21672;DHT22;10997;52.242;8.168;2023-09-07T03:10:46;15.10;99.90
21672;DHT22;10997;52.242;8.168;2023-09-07T03:15:46;15.00;99.90
21672;DHT22;10997;52.242;8.168;2023-09-07T03:20:47;14.90;99.90
21672;DHT22;10997;52.242;8.168;2023-09-07T03:25:48;14.90;99.90
21672;DHT22;10997;52.242;8.168;2023-09-07T03:30:48;14.80;99.90
21672;DHT22;10997;52.242;8.168;2023-09-07T03:35:49;14.70;99.90
21672;DHT22;10997;52.242;8.168;2023-09-07T03:40:52;14.70;99.90
21672;DHT22;10997;52.242;8.168;2023-09-07T03:45:52;14.60;99.90
21672;DHT22;10997;52.242;8.168;2023-09-07T03:50:53;14.60;99.90
21672;DHT22;10997;52.242;8.168;2023-09-07T03:55:53;14.50;99.90
21672;DHT22;10997;52.242;8.168;2023-09-07T04:00:54;14.50;99.90
21672;DHT22;10997;52.242;8.168;2023-09-07T04:05:54;14.50;99.90
21672;DHT22;10997;52.242;8.168;2023-09-07T04:10:56;14.50;99.90
21672;DHT22;10997;52.242;8.168;2023-09-07T04:15:56;14.60;99.90
21672;DHT22;10997;52.242;8.168;2023-09-07T04:21:07;15.00;99.90
21672;DHT22;10997;52.242;8.168;2023-09-07T04:26:09;15.30;99.90
21672;DHT22;10997;52.242;8.168;2023-09-07T04:31:10;15.50;99.90
21672;DHT22;10997;52.242;8.168;2023-09-07T04:36:13;15.70;99.90
21672;DHT22;10997;52.242;8.168;2023-09-07T04:41:14;15.80;99.90
21672;DHT22;10997;52.242;8.168;2023-09-07T04:46:14;16.00;99.90
21672;DHT22;10997;52.242;8.168;2023-09-07T04:51:15;16.10;99.90
21672;DHT22;10997;52.242;8.168;2023-09-07T04:56:16;16.20;99.90
21672;DHT22;10997;52.242;8.168;2023-09-07T05:01:16;16.30;99.90
21672;DHT22;10997;52.242;8.168;2023-09-07T05:06:17;16.20;99.90
21672;DHT22;10997;52.242;8.168;2023-09-07T05:11:17;16.10;99.90
21672;DHT22;10997;52.242;8.168;2023-09-07T05:16:18;15.70;99.90
21672;DHT22;10997;52.242;8.168;2023-09-07T05:21:18;15.40;99.90
21672;DHT22;10997;52.242;8.168;2023-09-07T05:26:22;15.30;99.90
21672;DHT22;10997;52.242;8.168;2023-09-07T05:31:26;15.30;99.90
21672;DHT22;10997;52.242;8.168;2023-09-07T05:36:27;15.50;99.90
21672;DHT22;10997;52.242;8.168;2023-09-07T05:41:28;15.70;99.90
21672;DHT22;10997;52.242;8.168;2023-09-07T05:46:28;16.00;99.90
21672;DHT22;10997;52.242;8.168;2023-09-07T05:51:29;16.30;99.90
21672;DHT22;10997;52.242;8.168;2023-09-07T05:56:30;16.50;99.90
21672;DHT22;10997;52.242;8.168;2023-09-07T06:01:33;16.80;99.90
21672;DHT22;10997;52.242;8.168;2023-09-07T06:06:34;16.90;99.90
21672;DHT22;10997;52.242;8.168;2023-09-07T06:11:34;17.10;99.90
21672;DHT22;10997;52.242;8.168;2023-09-07T06:16:35;17.30;99.90
21672;DHT22;10997;52.242;8.168;2023-09-07T06:21:35;17.50;99.90
21672;DHT22;10997;52.242;8.168;2023-09-07T06:26:36;17.70;99.90
21672;DHT22;10997;52.242;8.168;2023-09-07T06:31:36;17.90;99.90
21672;DHT22;10997;52.242;8.168;2023-09-07T06:36:37;18.10;99.90
21672;DHT22;10997;52.242;8.168;2023-09-07T06:41:38;18.20;99.90
21672;DHT22;10997;52.242;8.168;2023-09-07T06:46:38;18.30;99.90
21672;DHT22;10997;52.242;8.168;2023-09-07T06:51:39;18.40;99.90
21672;DHT22;10997;52.242;8.168;2023-09-07T06:56:39;18.70;99.90
21672;DHT22;10997;52.242;8.168;2023-09-07T07:01:40;19.00;99.90
21672;DHT22;10997;52.242;8.168;2023-09-07T07:06:40;19.30;99.90
21672;DHT22;10997;52.242;8.168;2023-09-07T07:11:41;19.50;99.90
21672;DHT22;10997;52.242;8.168;2023-09-07T07:16:43;19.70;99.90
21672;DHT22;10997;52.242;8.168;2023-09-07T07:21:43;19.90;99.90
21672;DHT22;10997;52.242;8.168;2023-09-07T07:26:45;20.10;99.90
21672;DHT22;10997;52.242;8.168;2023-09-07T07:31:46;20.20;99.90
21672;DHT22;10997;52.242;8.168;2023-09-07T07:36:47;20.40;99.90
21672;DHT22;10997;52.242;8.168;2023-09-07T07:41:47;20.60;99.90
21672;DHT22;10997;52.242;8.168;2023-09-07T07:46:48;20.70;99.90
21672;DHT22;10997;52.242;8.168;2023-09-07T07:51:49;20.90;99.90
21672;DHT22;10997;52.242;8.168;2023-09-07T07:56:49;21.00;99.90
21672;DHT22;10997;52.242;8.168;2023-09-07T08:01:50;21.20;99.90
21672;DHT22;10997;52.242;8.168;2023-09-07T08:06:50;21.40;99.90
21672;DHT22;10997;52.242;8.168;2023-09-07T08:11:54;21.60;99.90
21672;DHT22;10997;52.242;8.168;2023-09-07T08:16:57;21.90;99.90
21672;DHT22;10997;52.242;8.168;2023-09-07T08:21:58;22.10;99.90
21672;DHT22;10997;52.242;8.168;2023-09-07T08:26:59;22.30;99.90
21672;DHT22;10997;52.242;8.168;2023-09-07T08:32:00;22.40;99.90
21672;DHT22;10997;52.242;8.168;2023-09-07T08:37:04;22.60;99.90
21672;DHT22;10997;52.242;8.168;2023-09-07T08:42:07;22.90;99.90
21672;DHT22;10997;52.242;8.168;2023-09-07T08:47:08;23.00;99.90
21672;DHT22;10997;52.242;8.168;2023-09-07T08:52:09;23.30;99.90
21672;DHT22;10997;52.242;8.168;2023-09-07T08:57:11;23.60;99.90
21672;DHT22;10997;52.242;8.168;2023-09-07T09:02:12;23.70;99.90
21672;DHT22;10997;52.242;8.168;2023-09-07T09:07:12;23.90;99.90
21672;DHT22;10997;52.242;8.168;2023-09-07T09:12:13;24.10;99.90
21672;DHT22;10997;52.242;8.168;2023-09-07T09:17:15;24.30;99.90
21672;DHT22;10997;52.242;8.168;2023-09-07T09:22:15;24.50;99.90
21672;DHT22;10997;52.242;8.168;2023-09-07T09:27:16;24.80;99.90
21672;DHT22;10997;52.242;8.168;2023-09-07T09:32:19;25.00;99.90
21672;DHT22;10997;52.242;8.168;2023-09-07T09:37:20;25.10;99.90
21672;DHT22;10997;52.242;8.168;2023-09-07T09:42:20;25.40;99.90
21672;DHT22;10997;52.242;8.168;2023-09-07T09:47:21;25.60;99.90
21672;DHT22;10997;52.242;8.168;2023-09-07T09:52:23;25.80;99.90
21672;DHT22;10997;52.242;8.168;2023-09-07T09:57:25;25.90;99.90
21672;DHT22;10997;52.242;8.168;2023-09-07T10:02:26;26.20;99.90
21672;DHT22;10997;52.242;8.168;2023-09-07T10:07:44;26.40;99.90
21672;DHT22;10997;52.242;8.168;2023-09-07T10:12:52;26.60;99.90
21672;DHT22;10997;52.242;8.168;2023-09-07T10:18:32;26.90;99.90
21672;DHT22;10997;52.242;8.168;2023-09-07T10:23:37;27.10;99.90
21672;DHT22;10997;52.242;8.168;2023-09-07T10:28:38;27.30;99.90
21672;DHT22;10997;52.242;8.168;2023-09-07T10:33:39;27.50;99.90
21672;DHT22;10997;52.242;8.168;2023-09-07T10:38:40;28.00;99.90
21672;DHT22;10997;52.242;8.168;2023-09-07T10:43:53;28.10;99.90
21672;DHT22;10997;52.242;8.168;2023-09-07T10:48:54;28.20;99.90
21672;DHT22;10997;52.242;8.168;2023-09-07T10:53:56;28.20;99.90
21672;DHT22;10997;52.242;8.168;2023-09-07T10:58:57;28.20;99.90
21672;DHT22;10997;52.242;8.168;2023-09-07T11:03:57;28.60;99.90
21672;DHT22;10997;52.242;8.168;2023-09-07T11:09:02;28.70;99.90
21672;DHT22;10997;52.242;8.168;2023-09-07T11:14:08;29.00;99.90
21672;DHT22;10997;52.242;8.168;2023-09-07T11:19:09;29.20;99.90
21672;DHT22;10997;52.242;8.168;2023-09-07T11:24:10;29.30;99.90
21672;DHT22;10997;52.242;8.168;2023-09-07T11:29:14;29.40;99.90
21672;DHT22;10997;52.242;8.168;2023-09-07T11:34:16;29.50;99.90
21672;DHT22;10997;52.242;8.168;2023-09-07T11:39:16;29.80;99.90
21672;DHT22;10997;52.242;8.168;2023-09-07T11:44:17;29.90;99.90
21672;DHT22;10997;52.242;8.168;2023-09-07T11:49:17;29.80;99.90
21672;DHT22;10997;52.242;8.168;2023-09-07T11:54:20;29.90;99.90
21672;DHT22;10997;52.242;8.168;2023-09-07T11:59:21;30.00;99.90
21672;DHT22;10997;52.242;8.168;2023-09-07T12:04:21;30.00;99.60
21672;DHT22;10997;52.242;8.168;2023-09-07T12:09:22;30.10;99.30
21672;DHT22;10997;52.242;8.168;2023-09-07T12:14:22;30.40;99.30
21672;DHT22;10997;52.242;8.168;2023-09-07T12:19:23;30.50;98.10
21672;DHT22;10997;52.242;8.168;2023-09-07T12:24:24;30.60;97.70
21672;DHT22;10997;52.242;8.168;2023-09-07T12:29:25;30.80;97.60
21672;DHT22;10997;52.242;8.168;2023-09-07T12:34:25;30.70;96.50
21672;DHT22;10997;52.242;8.168;2023-09-07T12:39:26;30.70;96.40
21672;DHT22;10997;52.242;8.168;2023-09-07T12:44:27;31.00;97.10
21672;DHT22;10997;52.242;8.168;2023-09-07T12:49:27;31.00;97.50
21672;DHT22;10997;52.242;8.168;2023-09-07T12:54:28;31.00;97.20
21672;DHT22;10997;52.242;8.168;2023-09-07T12:59:29;31.10;97.50
21672;DHT22;10997;52.242;8.168;2023-09-07T13:04:29;31.10;97.00
21672;DHT22;10997;52.242;8.168;2023-09-07T13:09:30;31.10;97.00
21672;DHT22;10997;52.242;8.168;2023-09-07T13:14:30;31.10;96.40
21672;DHT22;10997;52.242;8.168;2023-09-07T13:19:31;31.20;94.80
21672;DHT22;10997;52.242;8.168;2023-09-07T13:24:31;31.30;94.10
21672;DHT22;10997;52.242;8.168;2023-09-07T13:29:33;31.40;93.40
21672;DHT22;10997;52.242;8.168;2023-09-07T13:34:33;31.70;93.00
21672;DHT22;10997;52.242;8.168;2023-09-07T13:39:34;31.80;93.20
21672;DHT22;10997;52.242;8.168;2023-09-07T13:44:34;31.80;93.60
21672;DHT22;10997;52.242;8.168;2023-09-07T13:49:35;31.90;93.80
21672;DHT22;10997;52.242;8.168;2023-09-07T13:54:36;31.90;94.40
21672;DHT22;10997;52.242;8.168;2023-09-07T13:59:36;31.80;94.10
21672;DHT22;10997;52.242;8.168;2023-09-07T14:04:37;31.70;92.90
21672;DHT22;10997;52.242;8.168;2023-09-07T14:09:37;31.60;92.40
21672;DHT22;10997;52.242;8.168;2023-09-07T14:14:38;31.80;91.70
21672;DHT22;10997;52.242;8.168;2023-09-07T14:19:39;31.50;91.40
21672;DHT22;10997;52.242;8.168;2023-09-07T14:24:39;31.60;90.90
21672;DHT22;10997;52.242;8.168;2023-09-07T14:29:40;31.70;90.40
21672;DHT22;10997;52.242;8.168;2023-09-07T14:34:40;31.80;89.80
21672;DHT22;10997;52.242;8.168;2023-09-07T14:39:41;31.80;89.10
21672;DHT22;10997;52.242;8.168;2023-09-07T14:44:47;31.70;88.10
21672;DHT22;10997;52.242;8.168;2023-09-07T14:49:48;31.80;88.10
21672;DHT22;10997;52.242;8.168;2023-09-07T14:54:48;31.80;88.70
21672;DHT22;10997;52.242;8.168;2023-09-07T14:59:49;31.90;89.10
21672;DHT22;10997;52.242;8.168;2023-09-07T15:04:50;31.90;90.40
21672;DHT22;10997;52.242;8.168;2023-09-07T15:09:51;31.80;92.00
21672;DHT22;10997;52.242;8.168;2023-09-07T15:14:52;31.70;91.70
21672;DHT22;10997;52.242;8.168;2023-09-07T15:19:53;31.40;92.40
21672;DHT22;10997;52.242;8.168;2023-09-07T15:24:53;31.40;93.20
21672;DHT22;10997;52.242;8.168;2023-09-07T15:29:56;31.30;93.00
21672;DHT22;10997;52.242;8.168;2023-09-07T15:34:56;31.20;93.60
21672;DHT22;10997;52.242;8.168;2023-09-07T15:39:57;31.00;93.50
21672;DHT22;10997;52.242;8.168;2023-09-07T15:44:57;31.00;93.50
21672;DHT22;10997;52.242;8.168;2023-09-07T15:49:58;31.00;93.90
21672;DHT22;10997;52.242;8.168;2023-09-07T15:54:58;31.00;93.90
21672;DHT22;10997;52.242;8.168;2023-09-07T15:59:59;31.00;94.30
21672;DHT22;10997;52.242;8.168;2023-09-07T16:05:02;30.90;94.50
21672;DHT22;10997;52.242;8.168;2023-09-07T16:10:03;30.80;94.50
21672;DHT22;10997;52.242;8.168;2023-09-07T16:15:04;30.70;94.40
21672;DHT22;10997;52.242;8.168;2023-09-07T16:20:06;30.50;94.60
21672;DHT22;10997;52.242;8.168;2023-09-07T16:25:06;30.40;94.80
21672;DHT22;10997;52.242;8.168;2023-09-07T16:30:08;30.40;95.10
21672;DHT22;10997;52.242;8.168;2023-09-07T16:35:09;30.20;95.30
21672;DHT22;10997;52.242;8.168;2023-09-07T16:40:10;30.00;95.50
21672;DHT22;10997;52.242;8.168;2023-09-07T16:45:11;29.80;95.90
21672;DHT22;10997;52.242;8.168;2023-09-07T16:50:12;29.70;96.20
21672;DHT22;10997;52.242;8.168;2023-09-07T16:55:12;29.50;96.50
21672;DHT22;10997;52.242;8.168;2023-09-07T17:00:13;29.40;97.30
21672;DHT22;10997;52.242;8.168;2023-09-07T17:05:14;29.30;97.20
21672;DHT22;10997;52.242;8.168;2023-09-07T17:10:15;29.20;97.50
21672;DHT22;10997;52.242;8.168;2023-09-07T17:15:15;29.10;97.60
21672;DHT22;10997;52.242;8.168;2023-09-07T17:20:16;28.90;98.30
21672;DHT22;10997;52.242;8.168;2023-09-07T17:25:18;28.80;99.40
21672;DHT22;10997;52.242;8.168;2023-09-07T17:30:18;28.50;99.50
21672;DHT22;10997;52.242;8.168;2023-09-07T17:35:20;28.30;99.90
21672;DHT22;10997;52.242;8.168;2023-09-07T17:40:20;28.10;99.90
21672;DHT22;10997;52.242;8.168;2023-09-07T17:45:21;27.80;99.90
21672;DHT22;10997;52.242;8.168;2023-09-07T17:50:22;27.50;99.90
21672;DHT22;10997;52.242;8.168;2023-09-07T17:55:22;27.30;99.90
21672;DHT22;10997;52.242;8.168;2023-09-07T18:00:24;26.90;99.90
21672;DHT22;10997;52.242;8.168;2023-09-07T18:05:24;26.50;99.90
21672;DHT22;10997;52.242;8.168;2023-09-07T18:10:25;26.30;99.90
21672;DHT22;10997;52.242;8.168;2023-09-07T18:15:26;25.90;99.90
21672;DHT22;10997;52.242;8.168;2023-09-07T18:20:26;25.70;99.90
21672;DHT22;10997;52.242;8.168;2023-09-07T18:25:27;25.50;99.90
21672;DHT22;10997;52.242;8.168;2023-09-07T18:30:27;25.30;99.90
21672;DHT22;10997;52.242;8.168;2023-09-07T18:35:28;25.00;99.90
21672;DHT22;10997;52.242;8.168;2023-09-07T18:40:29;24.80;99.90
21672;DHT22;10997;52.242;8.168;2023-09-07T18:45:30;24.50;99.90
21672;DHT22;10997;52.242;8.168;2023-09-07T18:50:30;24.20;99.90
21672;DHT22;10997;52.242;8.168;2023-09-07T18:55:31;24.00;99.90
21672;DHT22;10997;52.242;8.168;2023-09-07T19:00:32;23.80;99.90
21672;DHT22;10997;52.242;8.168;2023-09-07T19:05:32;23.70;99.90
21672;DHT22;10997;52.242;8.168;2023-09-07T19:10:33;23.60;99.90
21672;DHT22;10997;52.242;8.168;2023-09-07T19:15:34;23.50;99.90
21672;DHT22;10997;52.242;8.168;2023-09-07T19:20:35;23.50;99.90
21672;DHT22;10997;52.242;8.168;2023-09-07T19:25:36;23.40;99.90
21672;DHT22;10997;52.242;8.168;2023-09-07T19:30:36;23.30;99.90
21672;DHT22;10997;52.242;8.168;2023-09-07T19:35:37;23.20;99.90
21672;DHT22;10997;52.242;8.168;2023-09-07T19:40:37;23.10;99.90
21672;DHT22;10997;52.242;8.168;2023-09-07T19:45:38;23.10;99.90
21672;DHT22;10997;52.242;8.168;2023-09-07T19:50:44;23.10;99.90
21672;DHT22;10997;52.242;8.168;2023-09-07T19:55:44;22.90;99.90
21672;DHT22;10997;52.242;8.168;2023-09-07T20:00:45;22.90;99.90
21672;DHT22;10997;52.242;8.168;2023-09-07T20:05:45;22.80;99.90
21672;DHT22;10997;52.242;8.168;2023-09-07T20:10:46;22.70;99.90
21672;DHT22;10997;52.242;8.168;2023-09-07T20:15:47;22.60;99.90
21672;DHT22;10997;52.242;8.168;2023-09-07T20:20:47;22.30;99.90
21672;DHT22;10997;52.242;8.168;2023-09-07T20:25:48;21.90;99.90
21672;DHT22;10997;52.242;8.168;2023-09-07T20:30:48;21.60;99.90
21672;DHT22;10997;52.242;8.168;2023-09-07T20:35:49;21.30;99.90
21672;DHT22;10997;52.242;8.168;2023-09-07T20:40:49;21.20;99.90
21672;DHT22;10997;52.242;8.168;2023-09-07T20:45:52;21.20;99.90
21672;DHT22;10997;52.242;8.168;2023-09-07T20:50:53;21.20;99.90
21672;DHT22;10997;52.242;8.168;2023-09-07T20:55:53;21.10;99.90
21672;DHT22;10997;52.242;8.168;2023-09-07T21:00:54;20.90;99.90
21672;DHT22;10997;52.242;8.168;2023-09-07T21:05:55;20.60;99.90
21672;DHT22;10997;52.242;8.168;2023-09-07T21:10:56;20.50;99.90
21672;DHT22;10997;52.242;8.168;2023-09-07T21:15:56;20.40;99.90
21672;DHT22;10997;52.242;8.168;2023-09-07T21:20:57;20.30;99.90
21672;DHT22;10997;52.242;8.168;2023-09-07T21:25:58;20.20;99.90
21672;DHT22;10997;52.242;8.168;2023-09-07T21:30:59;20.10;99.90
21672;DHT22;10997;52.242;8.168;2023-09-07T21:36:00;19.90;99.90
21672;DHT22;10997;52.242;8.168;2023-09-07T21:41:00;19.80;99.90
21672;DHT22;10997;52.242;8.168;2023-09-07T21:46:01;19.70;99.90
21672;DHT22;10997;52.242;8.168;2023-09-07T21:51:02;19.60;99.90
21672;DHT22;10997;52.242;8.168;2023-09-07T21:56:02;19.50;99.90
21672;DHT22;10997;52.242;8.168;2023-09-07T22:01:03;19.30;99.90
21672;DHT22;10997;52.242;8.168;2023-09-07T22:06:03;19.30;99.90
21672;DHT22;10997;52.242;8.168;2023-09-07T22:11:06;19.30;99.90
21672;DHT22;10997;52.242;8.168;2023-09-07T22:16:07;19.20;99.90
21672;DHT22;10997;52.242;8.168;2023-09-07T22:21:08;19.10;99.90
21672;DHT22;10997;52.242;8.168;2023-09-07T22:26:08;19.00;99.90
21672;DHT22;10997;52.242;8.168;2023-09-07T22:31:09;18.90;99.90
21672;DHT22;10997;52.242;8.168;2023-09-07T22:36:10;18.90;99.90
21672;DHT22;10997;52.242;8.168;2023-09-07T22:41:10;18.90;99.90
21672;DHT22;10997;52.242;8.168;2023-09-07T22:46:12;18.80;99.90
21672;DHT22;10997;52.242;8.168;2023-09-07T22:51:12;18.70;99.90
21672;DHT22;10997;52.242;8.168;2023-09-07T22:56:13;18.70;99.90
21672;DHT22;10997;52.242;8.168;2023-09-07T23:01:14;18.70;99.90
21672;DHT22;10997;52.242;8.168;2023-09-07T23:06:14;18.60;99.90
21672;DHT22;10997;52.242;8.168;2023-09-07T23:11:15;18.60;99.90
21672;DHT22;10997;52.242;8.168;2023-09-07T23:16:17;18.50;99.90
21672;DHT22;10997;52.242;8.168;2023-09-07T23:21:18;18.30;99.90
21672;DHT22;10997;52.242;8.168;2023-09-07T23:26:19;18.20;99.90
21672;DHT22;10997;52.242;8.168;2023-09-07T23:31:21;18.20;99.90
21672;DHT22;10997;52.242;8.168;2023-09-07T23:36:22;18.10;99.90
21672;DHT22;10997;52.242;8.168;2023-09-07T23:41:24;18.10;99.90
21672;DHT22;10997;52.242;8.168;2023-09-07T23:46:25;18.20;99.90
21672;DHT22;10997;52.242;8.168;2023-09-07T23:51:25;18.20;99.90
21672;DHT22;10997;52.242;8.168;2023-09-07T23:56:26;18.10;99.90
